Time,TemperatureF,DewpointF,PressureIn,WindDirection,WindDirectionDegrees,WindSpeedMPH,WindSpeedGustMPH,Humidity,HourlyPrecipIn,Conditions,Clouds,dailyrainin,SoftwareType,DateUTC
2013-06-18 00:01:00,61.5,50.9,29.74,SE,145,0.0,0.0,68,0.00,,---,0.00,VWS V14.01,2013-06-18 04:01:00,
2013-06-18 00:06:00,61.7,51.0,29.74,SE,145,0.0,0.0,68,0.00,,---,0.00,VWS V14.01,2013-06-18 04:06:00,
2013-06-18 00:11:00,61.7,51.0,29.74,SE,145,0.0,0.0,68,0.00,,---,0.00,VWS V14.01,2013-06-18 04:11:00,
2013-06-18 00:16:00,61.5,50.9,29.74,SE,145,0.0,0.0,68,0.00,,---,0.00,VWS V14.01,2013-06-18 04:16:00,
2013-06-18 00:21:00,61.3,50.7,29.74,SE,145,0.0,0.0,68,0.00,,---,0.00,VWS V14.01,2013-06-18 04:21:00,
2013-06-18 00:26:00,61.2,50.5,29.74,SE,145,0.0,0.0,68,0.00,,---,0.00,VWS V14.01,2013-06-18 04:26:00,
2013-06-18 00:31:00,61.3,50.7,29.74,SE,145,0.0,0.0,68,0.00,,---,0.00,VWS V14.01,2013-06-18 04:31:00,
2013-06-18 00:36:00,61.3,51.1,29.74,SE,145,0.0,0.0,69,0.00,,---,0.00,VWS V14.01,2013-06-18 04:36:00,
2013-06-18 00:41:00,61.3,51.1,29.74,SE,145,0.0,0.0,69,0.00,,---,0.00,VWS V14.01,2013-06-18 04:41:00,
2013-06-18 00:46:00,61.2,50.9,29.74,SE,145,0.0,0.0,69,0.00,,---,0.00,VWS V14.01,2013-06-18 04:46:00,
2013-06-18 00:51:00,61.0,50.8,29.74,SE,145,0.0,0.0,69,0.00,,---,0.00,VWS V14.01,2013-06-18 04:51:00,
2013-06-18 00:56:00,61.0,50.8,29.74,SE,145,0.0,0.0,69,0.00,,---,0.00,VWS V14.01,2013-06-18 04:56:00,
2013-06-18 01:01:00,61.0,50.8,29.74,SE,145,0.0,0.0,69,0.00,,---,0.00,VWS V14.01,2013-06-18 05:01:00,
2013-06-18 01:06:00,60.8,50.6,29.74,SE,145,0.0,0.0,69,0.00,,---,0.00,VWS V14.01,2013-06-18 05:06:00,
2013-06-18 01:11:00,61.0,51.1,29.74,SE,145,0.0,0.0,70,0.00,,---,0.00,VWS V14.01,2013-06-18 05:11:00,
2013-06-18 01:17:00,61.2,51.3,29.74,SE,145,0.0,0.0,70,0.00,,---,0.00,VWS V14.01,2013-06-18 05:17:00,
2013-06-18 01:22:00,61.0,51.1,29.74,SE,145,0.0,0.0,70,0.00,,---,0.00,VWS V14.01,2013-06-18 05:22:00,
2013-06-18 01:27:00,61.0,51.1,29.74,SE,145,0.0,0.0,70,0.00,,---,0.00,VWS V14.01,2013-06-18 05:27:00,
2013-06-18 01:32:00,61.0,51.1,29.74,SE,145,0.0,0.0,70,0.00,,---,0.00,VWS V14.01,2013-06-18 05:32:00,
2013-06-18 01:37:00,61.5,52.0,29.74,SE,145,0.0,0.0,71,0.00,,---,0.00,VWS V14.01,2013-06-18 05:37:00,
2013-06-18 01:42:00,61.9,52.4,29.74,SE,145,2.7,3.1,71,0.00,,---,0.00,VWS V14.01,2013-06-18 05:42:00,
2013-06-18 01:47:00,62.4,53.3,29.74,SE,145,0.0,0.0,72,0.04,,---,0.04,VWS V14.01,2013-06-18 05:47:00,
2013-06-18 01:52:00,62.8,53.2,29.74,SSE,148,3.1,3.1,71,0.08,,---,0.08,VWS V14.01,2013-06-18 05:52:00,
2013-06-18 01:57:00,63.0,53.4,29.74,SSE,150,3.1,4.0,71,0.08,,---,0.08,VWS V14.01,2013-06-18 05:57:00,
2013-06-18 02:02:00,63.1,53.6,29.74,SSE,159,2.2,2.2,71,0.08,,---,0.08,VWS V14.01,2013-06-18 06:02:00,
2013-06-18 02:07:00,63.1,53.6,29.74,SSE,158,0.0,0.0,71,0.08,,---,0.08,VWS V14.01,2013-06-18 06:07:00,
2013-06-18 02:12:00,63.1,53.6,29.74,SSE,158,0.0,0.0,71,0.08,,---,0.08,VWS V14.01,2013-06-18 06:12:00,
2013-06-18 02:17:00,63.1,53.6,29.74,SSE,158,0.0,3.1,71,0.08,,---,0.08,VWS V14.01,2013-06-18 06:17:00,
2013-06-18 02:22:00,63.1,53.6,29.74,SSE,158,0.0,0.0,71,0.08,,---,0.08,VWS V14.01,2013-06-18 06:22:00,
2013-06-18 02:27:00,63.1,53.6,29.74,SSE,158,0.0,0.0,71,0.08,,---,0.08,VWS V14.01,2013-06-18 06:27:00,
2013-06-18 02:32:00,63.1,53.6,29.74,SSE,158,0.0,0.0,71,0.08,,---,0.08,VWS V14.01,2013-06-18 06:32:00,
2013-06-18 02:37:00,63.1,53.6,29.74,WNW,290,0.0,3.1,71,0.08,,---,0.08,VWS V14.01,2013-06-18 06:37:00,
2013-06-18 02:42:00,63.1,53.6,29.74,WNW,290,0.0,0.0,71,0.08,,---,0.08,VWS V14.01,2013-06-18 06:42:00,
2013-06-18 02:47:00,63.0,53.4,29.74,WNW,290,0.0,0.0,71,0.08,,---,0.08,VWS V14.01,2013-06-18 06:47:00,
2013-06-18 02:52:00,63.0,53.4,29.74,WNW,290,0.0,0.0,71,0.00,,---,0.08,VWS V14.01,2013-06-18 06:52:00,
2013-06-18 02:57:00,63.0,53.4,29.74,WNW,290,0.0,0.0,71,0.00,,---,0.08,VWS V14.01,2013-06-18 06:57:00,
2013-06-18 03:02:00,63.0,53.4,29.71,WNW,290,0.0,0.0,71,0.00,,---,0.08,VWS V14.01,2013-06-18 07:02:00,
2013-06-18 03:07:00,62.8,53.2,29.71,WNW,290,0.0,0.0,71,0.00,,---,0.08,VWS V14.01,2013-06-18 07:07:00,
2013-06-18 03:13:00,62.6,53.1,29.71,WNW,290,0.0,0.0,71,0.00,,---,0.08,VWS V14.01,2013-06-18 07:13:00,
2013-06-18 03:18:00,62.6,53.1,29.71,WNW,290,0.0,0.0,71,0.00,,---,0.08,VWS V14.01,2013-06-18 07:18:00,
2013-06-18 03:23:00,62.4,53.3,29.71,WNW,290,0.0,0.0,72,0.04,,---,0.12,VWS V14.01,2013-06-18 07:23:00,
2013-06-18 03:28:00,62.2,53.1,29.71,WNW,290,0.0,0.0,72,0.04,,---,0.12,VWS V14.01,2013-06-18 07:28:00,
2013-06-18 03:33:00,62.1,52.9,29.71,WNW,290,0.0,0.0,72,0.04,,---,0.12,VWS V14.01,2013-06-18 07:33:00,
2013-06-18 03:38:00,61.9,52.8,29.71,WNW,290,0.0,0.0,72,0.04,,---,0.12,VWS V14.01,2013-06-18 07:38:00,
2013-06-18 03:43:00,61.7,52.6,29.71,WNW,290,0.0,0.0,72,0.04,,---,0.12,VWS V14.01,2013-06-18 07:43:00,
2013-06-18 03:48:00,61.7,52.6,29.71,WNW,290,0.0,0.0,72,0.04,,---,0.12,VWS V14.01,2013-06-18 07:48:00,
2013-06-18 03:53:00,61.5,52.4,29.71,WNW,290,0.0,0.0,72,0.04,,---,0.12,VWS V14.01,2013-06-18 07:53:00,
2013-06-18 03:58:00,61.5,52.8,29.71,WNW,290,0.0,0.0,73,0.04,,---,0.12,VWS V14.01,2013-06-18 07:58:00,
2013-06-18 04:03:00,61.3,52.6,29.71,WNW,290,0.0,0.0,73,0.04,,---,0.12,VWS V14.01,2013-06-18 08:03:00,
2013-06-18 04:08:00,61.3,52.6,29.71,WNW,290,0.0,0.0,73,0.04,,---,0.12,VWS V14.01,2013-06-18 08:08:00,
2013-06-18 04:13:00,61.2,52.5,29.71,WNW,290,0.0,0.0,73,0.04,,---,0.12,VWS V14.01,2013-06-18 08:13:00,
2013-06-18 04:18:00,61.0,52.3,29.71,WNW,290,0.0,0.0,73,0.04,,---,0.12,VWS V14.01,2013-06-18 08:18:00,
2013-06-18 04:23:00,61.0,52.3,29.71,WNW,290,0.0,0.0,73,0.04,,---,0.12,VWS V14.01,2013-06-18 08:23:00,
2013-06-18 04:28:00,60.8,52.1,29.71,WNW,290,0.0,0.0,73,0.00,,---,0.12,VWS V14.01,2013-06-18 08:28:00,
2013-06-18 04:33:00,60.8,52.1,29.71,WNW,290,0.0,0.0,73,0.00,,---,0.12,VWS V14.01,2013-06-18 08:33:00,
2013-06-18 04:38:00,60.8,52.1,29.71,WNW,290,0.0,0.0,73,0.00,,---,0.12,VWS V14.01,2013-06-18 08:38:00,
2013-06-18 04:43:00,60.6,52.3,29.71,WNW,290,0.0,0.0,74,0.00,,---,0.12,VWS V14.01,2013-06-18 08:43:00,
2013-06-18 04:48:00,60.6,52.3,29.71,WNW,290,0.0,0.0,74,0.00,,---,0.12,VWS V14.01,2013-06-18 08:48:00,
2013-06-18 04:53:00,60.6,52.3,29.71,WNW,290,0.0,0.0,74,0.00,,---,0.12,VWS V14.01,2013-06-18 08:53:00,
2013-06-18 04:59:00,60.4,52.1,29.71,WNW,290,0.0,0.0,74,0.00,,---,0.12,VWS V14.01,2013-06-18 08:59:00,
2013-06-18 05:04:00,60.3,51.6,29.71,WNW,290,0.0,0.0,73,0.00,,---,0.12,VWS V14.01,2013-06-18 09:04:00,
2013-06-18 05:09:00,60.4,52.1,29.71,WNW,290,0.0,0.0,74,0.00,,---,0.12,VWS V14.01,2013-06-18 09:09:00,
2013-06-18 05:14:00,60.4,52.1,29.71,WNW,290,0.0,0.0,74,0.00,,---,0.12,VWS V14.01,2013-06-18 09:14:00,
2013-06-18 05:19:00,60.4,52.1,29.71,WNW,290,0.0,0.0,74,0.00,,---,0.12,VWS V14.01,2013-06-18 09:19:00,
2013-06-18 05:24:00,60.8,52.8,29.71,WNW,290,0.0,0.0,75,0.00,,---,0.12,VWS V14.01,2013-06-18 09:24:00,
2013-06-18 05:29:00,61.0,53.0,29.71,WNW,290,0.0,0.0,75,0.00,,---,0.12,VWS V14.01,2013-06-18 09:29:00,
2013-06-18 05:34:00,61.5,53.5,29.71,WNW,290,0.0,0.0,75,0.00,,---,0.12,VWS V14.01,2013-06-18 09:34:00,
2013-06-18 05:39:00,61.9,54.2,29.71,WNW,290,0.0,0.0,76,0.00,,---,0.12,VWS V14.01,2013-06-18 09:39:00,
2013-06-18 05:44:00,62.2,54.6,29.71,WNW,290,0.0,0.0,76,0.00,,---,0.12,VWS V14.01,2013-06-18 09:44:00,
2013-06-18 05:49:00,62.4,54.8,29.71,WNW,290,0.0,0.0,76,0.00,,---,0.12,VWS V14.01,2013-06-18 09:49:00,
2013-06-18 05:54:00,62.6,54.6,29.71,WNW,290,0.0,0.0,75,0.00,,---,0.12,VWS V14.01,2013-06-18 09:54:00,
2013-06-18 05:59:00,62.6,54.6,29.71,WNW,290,0.0,0.0,75,0.00,,---,0.12,VWS V14.01,2013-06-18 09:59:00,
2013-06-18 06:04:00,62.8,54.8,29.71,WNW,290,0.0,0.0,75,0.00,,---,0.12,VWS V14.01,2013-06-18 10:04:00,
2013-06-18 06:09:00,62.8,54.8,29.71,WNW,290,0.0,0.0,75,0.00,,---,0.12,VWS V14.01,2013-06-18 10:09:00,
2013-06-18 06:14:00,63.0,54.9,29.71,WNW,290,0.0,0.0,75,0.00,,---,0.12,VWS V14.01,2013-06-18 10:14:00,
2013-06-18 06:19:00,63.0,54.9,29.71,WNW,290,0.0,0.0,75,0.00,,---,0.12,VWS V14.01,2013-06-18 10:19:00,
2013-06-18 06:24:00,63.0,54.9,29.71,WNW,290,0.0,0.0,75,0.00,,---,0.12,VWS V14.01,2013-06-18 10:24:00,
2013-06-18 06:29:00,63.0,54.5,29.71,WNW,290,0.0,0.0,74,0.00,,---,0.12,VWS V14.01,2013-06-18 10:29:00,
2013-06-18 06:34:00,63.0,54.9,29.74,WNW,290,0.0,0.0,75,0.00,,---,0.12,VWS V14.01,2013-06-18 10:34:00,
2013-06-18 06:39:00,63.3,55.3,29.74,WNW,290,0.0,0.0,75,0.00,,---,0.12,VWS V14.01,2013-06-18 10:39:00,
2013-06-18 06:44:00,63.1,55.1,29.74,WNW,290,0.0,0.0,75,0.00,,---,0.12,VWS V14.01,2013-06-18 10:44:00,
2013-06-18 06:49:00,63.3,55.3,29.74,WNW,290,0.0,0.0,75,0.00,,---,0.12,VWS V14.01,2013-06-18 10:49:00,
2013-06-18 06:54:00,63.1,55.1,29.74,WNW,290,0.0,0.0,75,0.00,,---,0.12,VWS V14.01,2013-06-18 10:54:00,
2013-06-18 07:00:00,63.1,54.7,29.74,WNW,290,0.0,0.0,74,0.00,,---,0.00,VWS V14.01,2013-06-18 11:00:00,
2013-06-18 07:05:00,63.1,55.1,29.74,WNW,290,0.0,0.0,75,0.00,,---,0.12,VWS V14.01,2013-06-18 11:05:00,
2013-06-18 07:10:00,63.1,55.1,29.74,WNW,290,0.0,0.0,75,0.00,,---,0.12,VWS V14.01,2013-06-18 11:10:00,
2013-06-18 07:15:00,63.3,55.3,29.74,WNW,290,0.0,0.0,75,0.00,,---,0.12,VWS V14.01,2013-06-18 11:15:00,
2013-06-18 07:20:00,63.3,55.3,29.74,WNW,290,0.0,0.0,75,0.00,,---,0.12,VWS V14.01,2013-06-18 11:20:00,
2013-06-18 07:25:00,63.9,56.2,29.74,WNW,290,0.0,0.0,76,0.00,,---,0.12,VWS V14.01,2013-06-18 11:25:00,
2013-06-18 07:30:00,64.0,56.3,29.74,WNW,290,0.0,0.0,76,0.00,,---,0.12,VWS V14.01,2013-06-18 11:30:00,
2013-06-18 07:35:00,64.2,56.1,29.74,WNW,290,0.0,0.0,75,0.00,,---,0.12,VWS V14.01,2013-06-18 11:35:00,
2013-06-18 07:40:00,64.2,56.5,29.74,WNW,290,0.0,0.0,76,0.00,,---,0.12,VWS V14.01,2013-06-18 11:40:00,
2013-06-18 07:45:00,64.6,56.5,29.74,WNW,290,0.0,0.0,75,0.00,,---,0.12,VWS V14.01,2013-06-18 11:45:00,
2013-06-18 07:50:00,64.8,56.7,29.74,WNW,290,0.0,0.0,75,0.00,,---,0.12,VWS V14.01,2013-06-18 11:50:00,
2013-06-18 07:55:00,64.6,56.5,29.74,WNW,290,0.0,0.0,75,0.00,,---,0.12,VWS V14.01,2013-06-18 11:55:00,
2013-06-18 08:00:00,64.6,56.1,29.74,WNW,290,0.0,0.0,74,0.00,,---,0.12,VWS V14.01,2013-06-18 12:00:00,
2013-06-18 08:05:00,64.4,55.9,29.74,WNW,290,0.0,0.0,74,0.00,,---,0.12,VWS V14.01,2013-06-18 12:05:00,
2013-06-18 08:10:00,64.9,56.8,29.74,WNW,290,0.0,0.0,75,0.00,,---,0.12,VWS V14.01,2013-06-18 12:10:00,
2013-06-18 08:15:00,64.9,56.8,29.74,WNW,290,0.0,0.0,75,0.00,,---,0.12,VWS V14.01,2013-06-18 12:15:00,
2013-06-18 08:20:00,65.3,57.2,29.74,WNW,290,0.0,0.0,75,0.00,,---,0.12,VWS V14.01,2013-06-18 12:20:00,
2013-06-18 08:25:00,65.3,57.2,29.74,WNW,290,0.0,0.0,75,0.00,,---,0.12,VWS V14.01,2013-06-18 12:25:00,
2013-06-18 08:30:00,64.9,56.8,29.74,WNW,290,0.0,0.0,75,0.00,,---,0.12,VWS V14.01,2013-06-18 12:30:00,
2013-06-18 08:35:00,64.9,56.8,29.74,WNW,290,0.0,0.0,75,0.00,,---,0.12,VWS V14.01,2013-06-18 12:35:00,
2013-06-18 08:40:00,65.1,57.0,29.74,WNW,290,0.0,0.0,75,0.00,,---,0.12,VWS V14.01,2013-06-18 12:40:00,
2013-06-18 08:45:00,65.5,57.4,29.77,WNW,290,0.0,0.0,75,0.00,,---,0.12,VWS V14.01,2013-06-18 12:45:00,
2013-06-18 08:50:00,65.5,57.4,29.77,WNW,290,0.0,0.0,75,0.00,,---,0.12,VWS V14.01,2013-06-18 12:50:00,
2013-06-18 08:55:00,66.0,58.2,29.77,WNW,290,0.0,0.0,76,0.00,,---,0.12,VWS V14.01,2013-06-18 12:55:00,
2013-06-18 09:00:00,66.2,58.4,29.74,WNW,290,0.0,0.0,76,0.00,,---,0.12,VWS V14.01,2013-06-18 13:00:00,
2013-06-18 09:05:00,66.7,58.9,29.74,WNW,290,0.0,0.0,76,0.00,,---,0.12,VWS V14.01,2013-06-18 13:05:00,
2013-06-18 09:10:00,67.3,59.8,29.74,WNW,290,0.0,0.0,77,0.00,,---,0.12,VWS V14.01,2013-06-18 13:10:00,
2013-06-18 09:15:00,67.8,60.3,29.74,WNW,290,0.0,0.0,77,0.00,,---,0.12,VWS V14.01,2013-06-18 13:15:00,
2013-06-18 09:20:00,68.0,60.2,29.74,WNW,290,0.0,0.0,76,0.00,,---,0.12,VWS V14.01,2013-06-18 13:20:00,
2013-06-18 09:25:00,67.8,59.6,29.74,WNW,290,0.0,0.0,75,0.00,,---,0.12,VWS V14.01,2013-06-18 13:25:00,
2013-06-18 09:30:00,68.2,60.0,29.77,WNW,290,0.0,0.0,75,0.00,,---,0.12,VWS V14.01,2013-06-18 13:30:00,
2013-06-18 09:35:00,68.7,60.5,29.77,WNW,290,0.0,0.0,75,0.00,,---,0.12,VWS V14.01,2013-06-18 13:35:00,
2013-06-18 09:41:00,68.9,60.3,29.77,WNW,290,0.0,0.0,74,0.00,,---,0.12,VWS V14.01,2013-06-18 13:41:00,
2013-06-18 09:46:00,68.9,59.9,29.77,WNW,290,0.0,0.0,73,0.00,,---,0.12,VWS V14.01,2013-06-18 13:46:00,
2013-06-18 09:51:00,69.1,60.1,29.77,WNW,290,0.0,0.0,73,0.00,,---,0.12,VWS V14.01,2013-06-18 13:51:00,
2013-06-18 09:56:00,69.3,59.9,29.77,WNW,290,0.0,0.0,72,0.00,,---,0.12,VWS V14.01,2013-06-18 13:56:00,
2013-06-18 10:01:00,69.4,60.0,29.74,WNW,290,0.0,0.0,72,0.00,,---,0.12,VWS V14.01,2013-06-18 14:01:00,
2013-06-18 10:06:00,70.0,60.2,29.74,WNW,290,0.0,0.0,71,0.00,,---,0.12,VWS V14.01,2013-06-18 14:06:00,
2013-06-18 10:11:00,70.3,60.5,29.74,WNW,290,0.0,0.0,71,0.00,,---,0.12,VWS V14.01,2013-06-18 14:11:00,
2013-06-18 10:16:00,70.5,59.9,29.74,West,277,0.0,2.2,69,0.00,,---,0.12,VWS V14.01,2013-06-18 14:16:00,
2013-06-18 10:21:00,70.9,59.8,29.74,West,277,0.0,0.0,68,0.00,,---,0.12,VWS V14.01,2013-06-18 14:21:00,
2013-06-18 10:26:00,71.6,60.5,29.74,West,277,0.0,0.0,68,0.00,,---,0.12,VWS V14.01,2013-06-18 14:26:00,
2013-06-18 10:31:00,72.3,61.2,29.74,West,277,0.0,0.0,68,0.00,,---,0.12,VWS V14.01,2013-06-18 14:31:00,
2013-06-18 10:36:00,72.7,60.7,29.74,West,277,0.0,0.0,66,0.00,,---,0.12,VWS V14.01,2013-06-18 14:36:00,
2013-06-18 10:41:00,72.9,60.8,29.74,West,277,0.0,0.0,66,0.00,,---,0.12,VWS V14.01,2013-06-18 14:41:00,
2013-06-18 10:46:00,73.0,60.6,29.74,West,277,0.0,0.0,65,0.00,,---,0.12,VWS V14.01,2013-06-18 14:46:00,
2013-06-18 10:51:00,73.2,59.9,29.74,West,277,0.0,0.0,63,0.00,,---,0.12,VWS V14.01,2013-06-18 14:51:00,
2013-06-18 10:56:00,73.6,60.2,29.74,West,277,0.0,0.0,63,0.00,,---,0.12,VWS V14.01,2013-06-18 14:56:00,
2013-06-18 11:01:00,73.9,59.7,29.74,West,277,0.0,0.0,61,0.00,,---,0.12,VWS V14.01,2013-06-18 15:01:00,
2013-06-18 11:06:00,74.8,60.0,29.74,NW,326,3.1,3.1,60,0.00,,---,0.12,VWS V14.01,2013-06-18 15:06:00,
2013-06-18 11:11:00,74.8,54.4,29.74,NW,326,0.0,0.0,49,0.00,,---,0.12,VWS V14.01,2013-06-18 15:11:00,
2013-06-18 11:16:00,75.2,55.3,29.74,NW,326,0.0,0.0,50,0.00,,---,0.12,VWS V14.01,2013-06-18 15:16:00,
2013-06-18 11:21:00,76.1,54.4,29.74,NW,326,0.0,2.2,47,0.00,,---,0.12,VWS V14.01,2013-06-18 15:21:00,
2013-06-18 11:26:00,77.2,54.2,29.74,NW,326,2.7,2.7,45,0.00,,---,0.12,VWS V14.01,2013-06-18 15:26:00,
2013-06-18 11:31:00,78.1,53.2,29.74,NW,326,0.0,3.1,42,0.00,,---,0.12,VWS V14.01,2013-06-18 15:31:00,
2013-06-18 11:37:00,79.2,52.8,29.74,NW,326,0.0,0.0,40,0.00,,---,0.12,VWS V14.01,2013-06-18 15:37:00,
2013-06-18 11:42:00,79.2,49.9,29.74,NW,326,0.0,2.7,36,0.00,,---,0.12,VWS V14.01,2013-06-18 15:42:00,
2013-06-18 11:47:00,79.2,49.2,29.71,NW,326,0.0,0.0,35,0.00,,---,0.12,VWS V14.01,2013-06-18 15:47:00,
2013-06-18 11:52:00,79.0,49.0,29.71,NW,326,2.7,3.6,35,0.00,,---,0.12,VWS V14.01,2013-06-18 15:52:00,
2013-06-18 11:57:00,79.5,48.7,29.71,NW,326,2.2,2.2,34,0.00,,---,0.12,VWS V14.01,2013-06-18 15:57:00,
2013-06-18 12:02:00,80.8,49.8,29.71,NW,326,0.0,2.2,34,0.00,,---,0.12,VWS V14.01,2013-06-18 16:02:00,
2013-06-18 12:07:00,81.5,49.7,29.71,NW,325,0.0,2.2,33,0.00,,---,0.12,VWS V14.01,2013-06-18 16:07:00,
2013-06-18 12:12:00,82.2,49.5,29.71,NW,322,0.0,0.0,32,0.00,,---,0.12,VWS V14.01,2013-06-18 16:12:00,
2013-06-18 12:17:00,82.2,47.7,29.71,NW,322,0.0,0.0,30,0.00,,---,0.12,VWS V14.01,2013-06-18 16:17:00,
2013-06-18 12:22:00,81.7,47.3,29.71,NW,322,0.0,0.0,30,0.00,,---,0.12,VWS V14.01,2013-06-18 16:22:00,
2013-06-18 12:27:00,81.9,48.3,29.71,WNW,302,2.7,2.7,31,0.00,,---,0.12,VWS V14.01,2013-06-18 16:27:00,
2013-06-18 12:32:00,82.4,47.9,29.71,WNW,293,0.0,0.0,30,0.00,,---,0.12,VWS V14.01,2013-06-18 16:32:00,
2013-06-18 12:37:00,82.2,47.7,29.71,WNW,293,3.1,3.1,30,0.00,,---,0.12,VWS V14.01,2013-06-18 16:37:00,
2013-06-18 12:42:00,82.9,47.5,29.71,West,281,2.7,2.7,29,0.00,,---,0.12,VWS V14.01,2013-06-18 16:42:00,
2013-06-18 12:47:00,83.5,47.0,29.71,West,279,2.2,3.1,28,0.00,,---,0.12,VWS V14.01,2013-06-18 16:47:00,
2013-06-18 12:52:00,83.8,48.2,29.71,WSW,253,0.0,0.0,29,0.00,,---,0.12,VWS V14.01,2013-06-18 16:52:00,
2013-06-18 12:57:00,84.2,47.6,29.71,SSW,198,2.7,2.7,28,0.00,,---,0.12,VWS V14.01,2013-06-18 16:57:00,
2013-06-18 13:02:00,83.8,43.2,29.71,NW,321,4.9,4.9,24,0.00,,---,0.12,VWS V14.01,2013-06-18 17:02:00,
2013-06-18 13:07:00,83.7,43.1,29.71,NW,310,2.7,3.6,24,0.00,,---,0.12,VWS V14.01,2013-06-18 17:07:00,
2013-06-18 13:12:00,83.5,40.7,29.71,South,170,3.6,3.6,22,0.00,,---,0.12,VWS V14.01,2013-06-18 17:12:00,
2013-06-18 13:17:00,82.9,39.0,29.71,SSE,160,3.6,6.3,21,0.00,,---,0.12,VWS V14.01,2013-06-18 17:17:00,
2013-06-18 13:22:00,80.8,38.4,29.71,NNW,345,2.7,4.9,22,0.00,,---,0.12,VWS V14.01,2013-06-18 17:22:00,
2013-06-18 13:27:00,79.5,38.5,29.71,NW,322,2.7,6.3,23,0.00,,---,0.12,VWS V14.01,2013-06-18 17:27:00,
2013-06-18 13:32:00,79.0,40.2,29.71,South,177,0.0,2.2,25,0.00,,---,0.12,VWS V14.01,2013-06-18 17:32:00,
2013-06-18 13:37:00,78.3,38.5,29.71,ESE,102,2.7,3.1,24,0.00,,---,0.12,VWS V14.01,2013-06-18 17:37:00,
2013-06-18 13:42:00,77.7,39.1,29.71,NNW,328,3.1,3.1,25,0.00,,---,0.12,VWS V14.01,2013-06-18 17:42:00,
2013-06-18 13:47:00,77.0,39.5,29.71,SE,142,2.7,3.1,26,0.00,,---,0.12,VWS V14.01,2013-06-18 17:47:00,
2013-06-18 13:52:00,75.7,39.4,29.71,NNW,336,2.7,2.7,27,0.00,,---,0.12,VWS V14.01,2013-06-18 17:52:00,
2013-06-18 13:57:00,74.5,40.2,29.71,NW,313,2.2,5.8,29,0.00,,---,0.12,VWS V14.01,2013-06-18 17:57:00,
2013-06-18 14:02:00,73.8,40.4,29.71,SSE,149,3.6,3.6,30,0.00,,---,0.12,VWS V14.01,2013-06-18 18:02:00,
2013-06-18 14:07:00,73.0,41.5,29.71,SSW,194,2.7,2.7,32,0.00,,---,0.12,VWS V14.01,2013-06-18 18:07:00,
2013-06-18 14:12:00,72.3,40.8,29.71,SSE,151,3.1,3.1,32,0.00,,---,0.12,VWS V14.01,2013-06-18 18:12:00,
2013-06-18 14:17:00,71.1,39.7,29.71,NW,325,2.2,3.6,32,0.00,,---,0.12,VWS V14.01,2013-06-18 18:17:00,
2013-06-18 14:22:00,70.0,39.6,29.71,South,173,0.0,2.7,33,0.00,,---,0.12,VWS V14.01,2013-06-18 18:22:00,
2013-06-18 14:28:00,68.9,41.6,29.71,WSW,256,2.7,3.6,37,0.00,,---,0.12,VWS V14.01,2013-06-18 18:28:00,
2013-06-18 14:33:00,67.6,41.2,29.71,North,353,2.2,3.1,38,0.00,,---,0.12,VWS V14.01,2013-06-18 18:33:00,
2013-06-18 14:39:00,66.7,42.3,29.71,NW,305,4.0,4.0,41,0.04,,---,0.16,VWS V14.01,2013-06-18 18:39:00,
2013-06-18 14:54:00,65.8,44.5,29.71,South,170,0.0,0.0,46,0.04,,---,0.16,VWS V14.01,2013-06-18 18:54:00,
2013-06-18 14:59:00,66.0,45.2,29.71,SSE,161,0.0,0.0,47,0.04,,---,0.16,VWS V14.01,2013-06-18 18:59:00,
2013-06-18 15:04:00,66.0,45.8,29.71,SSE,161,0.0,0.0,48,0.04,,---,0.16,VWS V14.01,2013-06-18 19:04:00,
2013-06-18 15:09:00,66.4,46.1,29.71,SSE,161,0.0,2.2,48,0.04,,---,0.16,VWS V14.01,2013-06-18 19:09:00,
2013-06-18 15:14:00,66.6,47.4,29.71,SSE,158,0.0,0.0,50,0.04,,---,0.16,VWS V14.01,2013-06-18 19:14:00,
2013-06-18 15:19:00,66.9,48.2,29.71,SSE,151,0.0,0.0,51,0.04,,---,0.16,VWS V14.01,2013-06-18 19:19:00,
2013-06-18 15:24:00,67.5,48.7,29.71,SSE,151,0.0,2.2,51,0.04,,---,0.16,VWS V14.01,2013-06-18 19:24:00,
2013-06-18 15:29:00,67.5,49.2,29.71,South,185,0.0,0.0,52,0.04,,---,0.16,VWS V14.01,2013-06-18 19:29:00,
2013-06-18 15:34:00,67.5,49.2,29.71,SE,131,0.0,2.7,52,0.04,,---,0.16,VWS V14.01,2013-06-18 19:34:00,
2013-06-18 15:39:00,67.5,49.2,29.71,SE,131,0.0,0.0,52,0.00,,---,0.16,VWS V14.01,2013-06-18 19:39:00,
2013-06-18 15:44:00,67.6,49.9,29.71,SSE,155,0.0,0.0,53,0.00,,---,0.16,VWS V14.01,2013-06-18 19:44:00,
2013-06-18 15:49:00,67.6,49.4,29.71,NW,313,0.0,3.6,52,0.00,,---,0.16,VWS V14.01,2013-06-18 19:49:00,
2013-06-18 15:54:00,67.6,49.4,29.71,WNW,288,0.0,0.0,52,0.00,,---,0.16,VWS V14.01,2013-06-18 19:54:00,
2013-06-18 15:59:00,67.6,49.4,29.71,WNW,288,0.0,0.0,52,0.00,,---,0.16,VWS V14.01,2013-06-18 19:59:00,
2013-06-18 16:04:00,67.8,50.1,29.71,WNW,288,0.0,0.0,53,0.00,,---,0.16,VWS V14.01,2013-06-18 20:04:00,
2013-06-18 16:09:00,67.8,50.1,29.71,WNW,288,0.0,0.0,53,0.00,,---,0.16,VWS V14.01,2013-06-18 20:09:00,
2013-06-18 16:14:00,67.8,50.1,29.71,WNW,288,0.0,0.0,53,0.00,,---,0.16,VWS V14.01,2013-06-18 20:14:00,
2013-06-18 16:19:00,67.8,49.6,29.71,WNW,288,0.0,2.2,52,0.00,,---,0.16,VWS V14.01,2013-06-18 20:19:00,
2013-06-18 16:24:00,67.8,49.6,29.71,WNW,288,0.0,0.0,52,0.00,,---,0.16,VWS V14.01,2013-06-18 20:24:00,
2013-06-18 16:29:00,67.8,50.1,29.71,SW,231,0.0,2.2,53,0.00,,---,0.16,VWS V14.01,2013-06-18 20:29:00,
2013-06-18 16:34:00,68.0,49.7,29.71,SW,231,0.0,0.0,52,0.00,,---,0.16,VWS V14.01,2013-06-18 20:34:00,
2013-06-18 16:39:00,68.2,49.9,29.71,SW,231,0.0,0.0,52,0.00,,---,0.16,VWS V14.01,2013-06-18 20:39:00,
2013-06-18 16:44:00,68.5,50.2,29.71,SW,231,2.2,2.2,52,0.00,,---,0.16,VWS V14.01,2013-06-18 20:44:00,
2013-06-18 16:49:00,68.4,50.1,29.71,SW,231,0.0,2.2,52,0.00,,---,0.16,VWS V14.01,2013-06-18 20:49:00,
2013-06-18 16:54:00,68.0,49.2,29.71,NW,308,0.0,0.0,51,0.00,,---,0.16,VWS V14.01,2013-06-18 20:54:00,
2013-06-18 16:59:00,67.6,48.9,29.71,NNW,331,3.1,3.6,51,0.00,,---,0.16,VWS V14.01,2013-06-18 20:59:00,
2013-06-18 17:04:00,67.5,48.7,29.71,NW,325,2.7,2.7,51,0.00,,---,0.16,VWS V14.01,2013-06-18 21:04:00,
2013-06-18 17:09:00,67.1,48.4,29.71,NW,321,0.0,0.0,51,0.00,,---,0.16,VWS V14.01,2013-06-18 21:09:00,
2013-06-18 17:14:00,66.6,47.9,29.71,NW,307,0.0,0.0,51,0.00,,---,0.16,VWS V14.01,2013-06-18 21:14:00,
2013-06-18 17:19:00,66.4,47.7,29.74,NW,308,3.1,3.1,51,0.00,,---,0.16,VWS V14.01,2013-06-18 21:19:00,
2013-06-18 17:24:00,66.4,47.7,29.74,NW,308,0.0,2.7,51,0.00,,---,0.16,VWS V14.01,2013-06-18 21:24:00,
2013-06-18 17:29:00,66.2,48.1,29.74,WNW,301,0.0,2.7,52,0.00,,---,0.16,VWS V14.01,2013-06-18 21:29:00,
2013-06-18 17:34:00,66.0,47.9,29.74,WNW,301,0.0,0.0,52,0.00,,---,0.16,VWS V14.01,2013-06-18 21:34:00,
2013-06-18 17:40:00,66.0,48.4,29.74,WNW,301,0.0,0.0,53,0.00,,---,0.16,VWS V14.01,2013-06-18 21:40:00,
2013-06-18 17:45:00,66.2,48.6,29.74,WNW,301,0.0,0.0,53,0.00,,---,0.16,VWS V14.01,2013-06-18 21:45:00,
2013-06-18 17:50:00,66.2,48.6,29.74,WNW,301,0.0,0.0,53,0.00,,---,0.16,VWS V14.01,2013-06-18 21:50:00,
2013-06-18 17:55:00,66.0,48.4,29.74,WNW,301,0.0,0.0,53,0.00,,---,0.16,VWS V14.01,2013-06-18 21:55:00,
2013-06-18 18:00:00,65.8,48.2,29.74,SW,226,0.0,0.0,53,0.00,,---,0.16,VWS V14.01,2013-06-18 22:00:00,
2013-06-18 18:05:00,65.8,48.2,29.74,SW,226,0.0,0.0,53,0.00,,---,0.16,VWS V14.01,2013-06-18 22:05:00,
2013-06-18 18:10:00,65.7,48.1,29.74,SW,226,0.0,0.0,53,0.00,,---,0.16,VWS V14.01,2013-06-18 22:10:00,
2013-06-18 18:15:00,65.5,47.9,29.74,SW,226,2.2,2.2,53,0.00,,---,0.16,VWS V14.01,2013-06-18 22:15:00,
2013-06-18 18:20:00,65.5,47.9,29.71,WSW,249,0.0,0.0,53,0.00,,---,0.16,VWS V14.01,2013-06-18 22:20:00,
2013-06-18 18:25:00,65.3,47.8,29.71,WSW,249,0.0,0.0,53,0.00,,---,0.16,VWS V14.01,2013-06-18 22:25:00,
2013-06-18 18:30:00,65.1,47.6,29.71,WSW,249,0.0,0.0,53,0.00,,---,0.16,VWS V14.01,2013-06-18 22:30:00,
2013-06-18 18:35:00,65.1,47.6,29.74,WSW,249,0.0,0.0,53,0.00,,---,0.16,VWS V14.01,2013-06-18 22:35:00,
2013-06-18 18:40:00,64.9,46.9,29.74,South,189,3.1,3.1,52,0.00,,---,0.16,VWS V14.01,2013-06-18 22:40:00,
2013-06-18 18:45:00,64.9,46.9,29.74,SW,219,0.0,0.0,52,0.00,,---,0.16,VWS V14.01,2013-06-18 22:45:00,
2013-06-18 18:50:00,64.8,46.7,29.74,SW,219,0.0,0.0,52,0.00,,---,0.16,VWS V14.01,2013-06-18 22:50:00,
2013-06-18 18:55:00,64.8,46.7,29.74,SW,219,0.0,0.0,52,0.00,,---,0.16,VWS V14.01,2013-06-18 22:55:00,
2013-06-18 19:00:00,64.6,46.6,29.74,SW,219,0.0,0.0,52,0.00,,---,0.16,VWS V14.01,2013-06-18 23:00:00,
2013-06-18 19:05:00,64.6,46.6,29.74,SW,219,0.0,0.0,52,0.00,,---,0.16,VWS V14.01,2013-06-18 23:05:00,
2013-06-18 19:10:00,64.4,46.4,29.74,SW,219,0.0,0.0,52,0.00,,---,0.16,VWS V14.01,2013-06-18 23:10:00,
2013-06-18 19:15:00,64.4,46.4,29.74,SW,219,0.0,0.0,52,0.00,,---,0.16,VWS V14.01,2013-06-18 23:15:00,
2013-06-18 19:20:00,64.4,46.4,29.74,SW,219,0.0,0.0,52,0.00,,---,0.16,VWS V14.01,2013-06-18 23:20:00,
2013-06-18 19:25:00,64.2,46.2,29.74,SW,219,0.0,2.2,52,0.00,,---,0.16,VWS V14.01,2013-06-18 23:25:00,
2013-06-18 19:30:00,64.2,46.2,29.74,SW,219,0.0,0.0,52,0.00,,---,0.16,VWS V14.01,2013-06-18 23:30:00,
2013-06-18 19:35:00,64.2,46.2,29.74,SW,219,0.0,0.0,52,0.00,,---,0.16,VWS V14.01,2013-06-18 23:35:00,
2013-06-18 19:40:00,64.0,46.1,29.74,SW,219,0.0,0.0,52,0.00,,---,0.16,VWS V14.01,2013-06-18 23:40:00,
2013-06-18 19:45:00,63.9,45.9,29.74,SW,219,0.0,0.0,52,0.00,,---,0.16,VWS V14.01,2013-06-18 23:45:00,
2013-06-18 19:50:00,63.9,46.4,29.74,SW,219,0.0,0.0,53,0.00,,---,0.16,VWS V14.01,2013-06-18 23:50:00,
2013-06-18 19:55:00,63.7,46.2,29.74,SW,219,0.0,0.0,53,0.00,,---,0.16,VWS V14.01,2013-06-18 23:55:00,
2013-06-18 20:00:00,63.7,46.2,29.74,SW,220,0.0,0.0,53,0.00,,---,0.16,VWS V14.01,2013-06-19 00:00:00,
2013-06-18 20:05:00,63.5,46.6,29.74,SW,220,0.0,0.0,54,0.00,,---,0.16,VWS V14.01,2013-06-19 00:05:00,
2013-06-18 20:10:00,63.5,46.6,29.74,SW,220,0.0,2.7,54,0.00,,---,0.16,VWS V14.01,2013-06-19 00:10:00,
2013-06-18 20:16:00,63.3,46.4,29.74,SW,220,0.0,0.0,54,0.00,,---,0.16,VWS V14.01,2013-06-19 00:16:00,
2013-06-18 20:21:00,63.1,46.7,29.74,SW,220,0.0,0.0,55,0.00,,---,0.16,VWS V14.01,2013-06-19 00:21:00,
2013-06-18 20:26:00,63.0,46.6,29.74,SW,220,0.0,0.0,55,0.00,,---,0.16,VWS V14.01,2013-06-19 00:26:00,
2013-06-18 20:31:00,63.0,47.0,29.74,SW,220,0.0,2.7,56,0.00,,---,0.16,VWS V14.01,2013-06-19 00:31:00,
2013-06-18 20:36:00,63.0,47.0,29.74,SW,220,0.0,0.0,56,0.00,,---,0.16,VWS V14.01,2013-06-19 00:36:00,
2013-06-18 20:41:00,62.6,46.7,29.74,South,186,0.0,0.0,56,0.00,,---,0.16,VWS V14.01,2013-06-19 00:41:00,
2013-06-18 20:46:00,62.2,46.8,29.74,South,186,0.0,0.0,57,0.00,,---,0.16,VWS V14.01,2013-06-19 00:46:00,
2013-06-18 20:51:00,62.1,46.7,29.74,South,186,0.0,0.0,57,0.00,,---,0.16,VWS V14.01,2013-06-19 00:51:00,
2013-06-18 20:56:00,61.9,46.5,29.74,South,173,0.0,0.0,57,0.00,,---,0.16,VWS V14.01,2013-06-19 00:56:00,
2013-06-18 21:01:00,61.9,46.5,29.74,SSW,204,0.0,0.0,57,0.00,,---,0.16,VWS V14.01,2013-06-19 01:01:00,
2013-06-18 21:06:00,61.9,46.5,29.74,SSW,204,0.0,0.0,57,0.00,,---,0.16,VWS V14.01,2013-06-19 01:06:00,
2013-06-18 21:11:00,61.7,46.3,29.74,SSW,204,0.0,0.0,57,0.00,,---,0.16,VWS V14.01,2013-06-19 01:11:00,
2013-06-18 21:16:00,61.7,46.8,29.74,SSW,204,0.0,0.0,58,0.00,,---,0.16,VWS V14.01,2013-06-19 01:16:00,
2013-06-18 21:21:00,61.7,46.8,29.74,SSW,204,0.0,0.0,58,0.00,,---,0.16,VWS V14.01,2013-06-19 01:21:00,
2013-06-18 21:26:00,61.7,46.8,29.74,SSW,204,0.0,0.0,58,0.00,,---,0.16,VWS V14.01,2013-06-19 01:26:00,
2013-06-18 21:31:00,61.7,46.8,29.74,SSW,204,0.0,0.0,58,0.00,,---,0.16,VWS V14.01,2013-06-19 01:31:00,
2013-06-18 21:36:00,61.7,46.8,29.74,SSW,204,0.0,0.0,58,0.00,,---,0.16,VWS V14.01,2013-06-19 01:36:00,
2013-06-18 21:41:00,61.7,46.8,29.74,SSW,204,0.0,0.0,58,0.00,,---,0.16,VWS V14.01,2013-06-19 01:41:00,
2013-06-18 21:46:00,61.7,47.2,29.74,SSW,204,0.0,0.0,59,0.00,,---,0.16,VWS V14.01,2013-06-19 01:46:00,
2013-06-18 21:51:00,61.7,47.2,29.74,North,353,0.0,2.7,59,0.00,,---,0.16,VWS V14.01,2013-06-19 01:51:00,
2013-06-18 21:56:00,61.5,47.1,29.74,North,353,0.0,0.0,59,0.00,,---,0.16,VWS V14.01,2013-06-19 01:56:00,
2013-06-18 22:01:00,61.5,47.1,29.74,North,353,0.0,0.0,59,0.00,,---,0.16,VWS V14.01,2013-06-19 02:01:00,
2013-06-18 22:06:00,61.3,47.3,29.74,North,353,0.0,0.0,60,0.00,,---,0.16,VWS V14.01,2013-06-19 02:06:00,
2013-06-18 22:11:00,61.3,47.3,29.74,North,353,0.0,0.0,60,0.00,,---,0.16,VWS V14.01,2013-06-19 02:11:00,
2013-06-18 22:16:00,61.2,47.2,29.77,North,353,0.0,0.0,60,0.00,,---,0.16,VWS V14.01,2013-06-19 02:16:00,
2013-06-18 22:21:00,61.0,47.0,29.77,North,353,0.0,0.0,60,0.04,,---,0.20,VWS V14.01,2013-06-19 02:21:00,
2013-06-18 22:26:00,60.8,46.8,29.77,North,353,0.0,0.0,60,0.04,,---,0.20,VWS V14.01,2013-06-19 02:26:00,
2013-06-18 22:31:00,60.6,47.1,29.74,North,353,0.0,0.0,61,0.04,,---,0.20,VWS V14.01,2013-06-19 02:31:00,
2013-06-18 22:36:00,60.4,46.9,29.74,North,353,0.0,0.0,61,0.08,,---,0.24,VWS V14.01,2013-06-19 02:36:00,
2013-06-18 22:41:00,60.4,46.9,29.74,North,353,0.0,0.0,61,0.08,,---,0.24,VWS V14.01,2013-06-19 02:41:00,
2013-06-18 22:46:00,60.3,46.8,29.74,North,353,0.0,0.0,61,0.08,,---,0.24,VWS V14.01,2013-06-19 02:46:00,
2013-06-18 22:51:00,59.9,46.4,29.74,North,353,0.0,0.0,61,0.08,,---,0.24,VWS V14.01,2013-06-19 02:51:00,
2013-06-18 22:57:00,59.9,46.4,29.74,NW,317,0.0,0.0,61,0.12,,---,0.28,VWS V14.01,2013-06-19 02:57:00,
2013-06-18 23:02:00,59.7,46.7,29.74,NW,318,0.0,0.0,62,0.12,,---,0.28,VWS V14.01,2013-06-19 03:02:00,
2013-06-18 23:07:00,59.5,46.5,29.74,NW,320,0.0,3.1,62,0.12,,---,0.28,VWS V14.01,2013-06-19 03:07:00,
2013-06-18 23:12:00,59.2,46.2,29.74,NW,320,0.0,0.0,62,0.12,,---,0.28,VWS V14.01,2013-06-19 03:12:00,
2013-06-18 23:17:00,58.8,45.8,29.77,NW,320,0.0,2.2,62,0.12,,---,0.28,VWS V14.01,2013-06-19 03:17:00,
2013-06-18 23:22:00,58.6,45.7,29.77,NW,320,0.0,0.0,62,0.12,,---,0.31,VWS V14.01,2013-06-19 03:22:00,
2013-06-18 23:27:00,58.6,46.1,29.77,NW,320,0.0,0.0,63,0.12,,---,0.31,VWS V14.01,2013-06-19 03:27:00,
2013-06-18 23:32:00,58.6,46.1,29.77,NW,320,0.0,0.0,63,0.08,,---,0.31,VWS V14.01,2013-06-19 03:32:00,
2013-06-18 23:37:00,58.5,45.9,29.77,NW,320,0.0,0.0,63,0.08,,---,0.31,VWS V14.01,2013-06-19 03:37:00,
2013-06-18 23:42:00,58.5,45.9,29.77,NW,320,0.0,0.0,63,0.08,,---,0.31,VWS V14.01,2013-06-19 03:42:00,
2013-06-18 23:47:00,58.3,45.8,29.77,NW,320,0.0,0.0,63,0.12,,---,0.35,VWS V14.01,2013-06-19 03:47:00,
2013-06-18 23:52:00,58.1,45.6,29.77,NW,320,0.0,0.0,63,0.12,,---,0.35,VWS V14.01,2013-06-19 03:52:00,
2013-06-18 23:57:00,58.1,46.0,29.77,NW,320,0.0,0.0,64,0.08,,---,0.35,VWS V14.01,2013-06-19 03:57:00,